X  Zamknij Lotniskowe dane METAR     LGTS Thessaloniki Macedonia International Airport
Temperatura
30°C Temperatura
22°C Punkt rosy
62% Wilgotność



Wiatr
8 MPH
13 KM/H
4 M/S
7 KTS



310°
NW
Warunki bieżące

Czyste Czyste
Ciśnienie 1015.92 (hPa) - 30 (inHg)
Widoczność 6 (mil) - 9.7 (km)
Lotnisko
Kod lotniska LGTS

Położenie: Thessaloniki Macedonia International Airport
Odległość: 85 (mi)

Metar:
LGTS 210820Z 31007KT CAVOK 30/22 Q1016 NOSIG

Czas: 21-06-2024 11:20 EEST